Time;durP1;ratioP1;P1;durP2;ratioP2;P2;SDS_P1;SDS_P2;PMS_P1;PMS_P2;Temp;Humidity;BMP_temperature;BMP_pressure;BME280_temperature;BME280_humidity;BME280_pressure;Samples;Min_cycle;Max_cycle;Signal;HPM_P1;HPM_P2
2022/12/14 00:00:50;;;;;;;86.05;31.05;;;-3.90;99.90;;;;;;5101325;28;20054;-77
2022/12/14 00:03:16;;;;;;;89.22;30.65;;;-4.00;99.90;;;;;;5101924;28;20024;-77
2022/12/14 00:05:43;;;;;;;93.68;33.00;;;-3.90;99.90;;;;;;5099796;28;20116;-76
2022/12/14 00:08:10;;;;;;;83.63;30.63;;;-4.00;99.90;;;;;;5101524;28;20029;-76
2022/12/14 00:10:37;;;;;;;81.50;30.25;;;-4.00;99.90;;;;;;5101552;28;20032;-75
2022/12/14 00:13:04;;;;;;;72.57;27.63;;;-4.10;99.90;;;;;;5101239;28;20020;-76
2022/12/14 00:15:31;;;;;;;72.18;27.40;;;-4.10;99.90;;;;;;5098964;28;20024;-75
2022/12/14 00:17:57;;;;;;;82.35;30.30;;;-4.20;99.90;;;;;;5098897;28;20060;-77
2022/12/14 00:20:23;;;;;;;81.82;30.38;;;-4.20;99.90;;;;;;5099816;28;20043;-76
2022/12/14 00:22:48;;;;;;;77.75;27.55;;;-4.30;99.90;;;;;;5098932;28;20548;-75
2022/12/14 00:25:14;;;;;;;79.30;29.40;;;-4.30;99.90;;;;;;5101212;28;20363;-75
2022/12/14 00:27:43;;;;;;;76.78;27.55;;;-4.40;99.90;;;;;;5101320;28;20024;-76
2022/12/14 00:30:11;;;;;;;73.30;29.25;;;-4.40;99.90;;;;;;5101423;28;20039;-76
2022/12/14 00:32:37;;;;;;;85.50;30.17;;;-4.40;99.90;;;;;;5100700;28;20036;-76
2022/12/14 00:35:03;;;;;;;69.53;27.92;;;-4.40;99.90;;;;;;5100894;28;20028;-75
2022/12/14 00:37:32;;;;;;;72.13;27.92;;;-4.30;99.90;;;;;;5100773;28;20073;-76
2022/12/14 00:39:57;;;;;;;81.57;28.65;;;-4.30;99.90;;;;;;5101091;28;20031;-75
2022/12/14 00:42:23;;;;;;;72.97;29.17;;;-4.30;99.90;;;;;;5100983;28;20016;-76
2022/12/14 00:44:49;;;;;;;75.07;28.50;;;-4.40;99.90;;;;;;5100423;28;20026;-74
2022/12/14 00:47:17;;;;;;;85.43;30.23;;;-4.30;99.90;;;;;;5099763;28;20039;-75
2022/12/14 00:49:43;;;;;;;81.18;29.42;;;-4.30;99.90;;;;;;5100532;28;20115;-75
2022/12/14 00:52:09;;;;;;;77.60;29.00;;;-4.40;99.90;;;;;;5102445;28;20047;-75
2022/12/14 00:54:34;;;;;;;68.45;27.02;;;-4.30;99.90;;;;;;5102121;28;20050;-76
2022/12/14 00:57:00;;;;;;;72.82;26.85;;;-4.40;99.90;;;;;;5100281;28;20051;-77
2022/12/14 00:59:26;;;;;;;78.05;27.70;;;-4.40;99.90;;;;;;5102131;28;20098;-75
2022/12/14 01:01:52;;;;;;;76.05;26.83;;;-4.50;99.90;;;;;;5099208;28;20039;-77
2022/12/14 01:04:18;;;;;;;77.95;27.58;;;-4.50;99.90;;;;;;5099731;28;20039;-76
2022/12/14 01:06:49;;;;;;;70.35;25.83;;;-4.50;99.90;;;;;;5100390;28;20016;-74
2022/12/14 01:09:15;;;;;;;71.38;26.48;;;-4.50;99.90;;;;;;5099767;28;20687;-75
2022/12/14 01:11:41;;;;;;;85.30;29.67;;;-4.60;99.90;;;;;;5100743;28;20031;-74
2022/12/14 01:14:07;;;;;;;79.93;29.40;;;-4.60;99.90;;;;;;5096816;28;20020;-73
2022/12/14 01:16:32;;;;;;;81.63;29.48;;;-4.60;99.90;;;;;;5099730;28;20031;-74
2022/12/14 01:19:00;;;;;;;83.80;30.17;;;-4.70;99.90;;;;;;5100354;28;20111;-75
2022/12/14 01:21:26;;;;;;;73.68;27.77;;;-4.70;99.90;;;;;;5098907;28;20036;-75
2022/12/14 06:45:49;;;;;;;53.90;19.52;;;-6.40;99.90;;;;;;5097771;22;20060;-72
2022/12/14 06:48:52;;;;;;;56.30;20.35;;;-6.50;99.90;;;;;;5039088;28;20045;-72
2022/12/14 06:51:19;;;;;;;58.47;19.77;;;-6.50;99.90;;;;;;5043444;28;20055;-71
2022/12/14 06:53:45;;;;;;;50.83;18.83;;;-6.50;99.90;;;;;;5045692;28;20032;-72
2022/12/14 06:56:14;;;;;;;51.17;19.60;;;-6.50;99.90;;;;;;5053626;28;20022;-71
2022/12/14 06:58:40;;;;;;;56.13;20.50;;;-6.50;99.90;;;;;;5056167;28;20084;-71
2022/12/14 07:01:12;;;;;;;58.53;21.83;;;-6.50;99.90;;;;;;5053277;28;20032;-73
2022/12/14 07:03:38;;;;;;;56.63;20.88;;;-6.40;99.90;;;;;;5053647;28;20025;-74
2022/12/14 07:06:05;;;;;;;57.38;21.30;;;-6.40;99.90;;;;;;5051877;28;20378;-72
2022/12/14 07:08:32;;;;;;;55.88;21.35;;;-6.40;99.90;;;;;;5054578;28;20033;-72
2022/12/14 07:11:07;;;;;;;50.50;20.48;;;-6.30;99.90;;;;;;5053815;28;20056;-72
2022/12/14 07:13:33;;;;;;;48.80;19.42;;;-6.30;99.90;;;;;;5052625;28;20029;-73
2022/12/14 07:15:59;;;;;;;50.00;19.58;;;-6.30;99.90;;;;;;5052075;28;20021;-72
2022/12/14 07:18:25;;;;;;;62.85;19.67;;;-6.30;99.90;;;;;;5053367;28;20068;-72
2022/12/14 07:21:05;;;;;;;50.58;19.52;;;-6.30;99.90;;;;;;5054214;28;20063;-72
2022/12/14 07:23:33;;;;;;;46.88;19.35;;;-6.30;99.90;;;;;;5051911;28;20025;-72
2022/12/14 07:26:07;;;;;;;52.95;20.77;;;-6.30;99.90;;;;;;5053919;28;20031;-71
2022/12/14 07:28:35;;;;;;;55.45;20.17;;;-6.30;99.90;;;;;;5052274;28;20028;-72
2022/12/14 07:31:03;;;;;;;56.13;23.08;;;-6.30;99.90;;;;;;5050918;28;20037;-72
2022/12/14 07:33:28;;;;;;;44.72;18.73;;;-6.30;99.90;;;;;;5049876;28;20036;-72
2022/12/14 07:36:06;;;;;;;51.90;20.48;;;-6.30;99.90;;;;;;5047128;28;20025;-72
2022/12/14 07:38:33;;;;;;;56.97;21.65;;;-6.40;99.90;;;;;;5042798;28;20089;-72
2022/12/14 07:41:11;;;;;;;51.30;19.80;;;-6.40;99.90;;;;;;5066798;28;20041;-72
2022/12/14 07:43:38;;;;;;;55.45;21.80;;;-6.40;99.90;;;;;;5051800;28;20076;-72
2022/12/14 07:46:09;;;;;;;58.65;21.38;;;-6.40;99.90;;;;;;5050545;28;20059;-73
2022/12/14 07:48:36;;;;;;;65.47;24.92;;;-6.50;99.90;;;;;;5062979;28;20090;-72
2022/12/14 07:51:07;;;;;;;73.57;29.35;;;-6.50;99.90;;;;;;5061808;28;20064;-72
2022/12/14 07:53:34;;;;;;;84.82;32.72;;;-6.50;99.90;;;;;;5062765;28;20021;-72
2022/12/14 07:56:10;;;;;;;87.57;34.30;;;-6.50;99.90;;;;;;5043592;28;20017;-71
2022/12/14 07:58:36;;;;;;;85.78;34.35;;;-6.50;99.90;;;;;;5060857;28;20047;-73
2022/12/14 08:01:22;;;;;;;102.60;38.20;;;-6.50;99.90;;;;;;5062513;28;20092;-71
2022/12/14 08:03:51;;;;;;;87.07;33.30;;;-6.40;99.90;;;;;;5062135;28;20032;-71
2022/12/14 08:06:18;;;;;;;90.88;32.67;;;-6.40;99.90;;;;;;5060859;28;20027;-71
2022/12/14 08:08:44;;;;;;;78.85;29.10;;;-6.40;99.90;;;;;;5061425;28;20064;-72
2022/12/14 08:11:11;;;;;;;72.65;27.38;;;-6.20;99.90;;;;;;5061434;28;20025;-72
2022/12/14 08:13:41;;;;;;;67.68;23.40;;;-5.90;99.90;;;;;;5062309;28;20021;-72
2022/12/14 08:16:13;;;;;;;60.05;23.00;;;-5.40;99.90;;;;;;5063164;28;20025;-76
2022/12/14 08:18:39;;;;;;;53.17;20.73;;;-4.90;99.90;;;;;;5062337;28;20538;-72
2022/12/14 08:21:07;;;;;;;46.03;18.75;;;-4.40;99.90;;;;;;5061363;28;20017;-72
2022/12/14 08:23:33;;;;;;;51.38;19.00;;;-4.00;99.90;;;;;;5059536;28;20021;-72
2022/12/14 08:26:00;;;;;;;51.72;20.45;;;-3.70;99.90;;;;;;5060078;28;20057;-73
2022/12/14 08:28:28;;;;;;;42.60;18.65;;;-3.40;99.90;;;;;;5040066;28;20022;-73
2022/12/14 08:30:54;;;;;;;46.95;18.17;;;-3.30;99.90;;;;;;5053961;28;20028;-73
2022/12/14 08:33:20;;;;;;;45.03;18.25;;;-3.30;99.90;;;;;;5067858;28;20088;-73
2022/12/14 08:35:46;;;;;;;48.58;18.70;;;-3.30;99.90;;;;;;5061728;28;20030;-73
2022/12/14 08:38:13;;;;;;;42.58;17.83;;;-3.20;99.90;;;;;;5062578;28;20037;-72
2022/12/14 08:40:38;;;;;;;44.90;18.90;;;-2.90;99.90;;;;;;5061216;28;20021;-72
2022/12/14 08:43:06;;;;;;;43.35;16.63;;;-2.60;99.90;;;;;;5060467;28;20064;-73
2022/12/14 08:45:32;;;;;;;44.92;18.70;;;-2.40;99.90;;;;;;5060500;28;20025;-72
2022/12/14 08:47:59;;;;;;;46.90;18.38;;;-2.20;99.90;;;;;;5044688;28;20045;-72
2022/12/14 08:50:26;;;;;;;50.28;17.83;;;-2.10;99.90;;;;;;5060196;28;20028;-72
2022/12/14 08:52:52;;;;;;;47.70;18.50;;;-1.90;99.90;;;;;;5044146;28;20029;-72
2022/12/14 08:55:20;;;;;;;43.22;17.23;;;-1.90;99.90;;;;;;5061679;28;20029;-72
2022/12/14 08:57:46;;;;;;;39.88;16.40;;;-2.00;99.90;;;;;;5059129;28;20495;-72
2022/12/14 09:00:12;;;;;;;42.05;18.02;;;-2.20;99.90;;;;;;5041333;28;20029;-74
2022/12/14 09:02:39;;;;;;;44.92;17.80;;;-2.50;99.90;;;;;;5057344;28;20051;-71
2022/12/14 09:05:04;;;;;;;38.60;15.63;;;-2.80;99.90;;;;;;5043627;28;20052;-73
2022/12/14 09:07:31;;;;;;;40.90;17.50;;;-3.00;99.90;;;;;;5041683;28;20033;-72
2022/12/14 09:09:56;;;;;;;43.00;16.95;;;-3.10;99.90;;;;;;5060007;28;20025;-72
2022/12/14 09:12:22;;;;;;;42.13;17.42;;;-3.20;99.90;;;;;;5056738;28;20053;-72
2022/12/14 09:14:49;;;;;;;38.65;17.45;;;-3.20;99.90;;;;;;5057623;28;20025;-73
2022/12/14 09:17:15;;;;;;;40.83;16.50;;;-3.10;99.90;;;;;;5056360;28;20041;-73
2022/12/14 09:19:41;;;;;;;42.78;17.38;;;-2.80;99.90;;;;;;5040786;28;20033;-73
2022/12/14 09:22:07;;;;;;;39.33;15.32;;;-2.50;99.90;;;;;;5041816;28;20052;-72
2022/12/14 09:24:33;;;;;;;39.60;15.43;;;-2.30;99.90;;;;;;5059086;28;20025;-73
2022/12/14 09:26:59;;;;;;;39.60;17.25;;;-2.30;99.90;;;;;;5044795;28;20047;-73
2022/12/14 09:29:26;;;;;;;44.20;16.35;;;-2.20;99.90;;;;;;5059801;28;20029;-72
2022/12/14 09:31:52;;;;;;;41.65;16.35;;;-2.10;99.90;;;;;;5043524;28;20044;-72
2022/12/14 09:34:18;;;;;;;37.60;16.65;;;-1.90;99.90;;;;;;5060300;28;20131;-73
2022/12/14 09:36:44;;;;;;;40.97;15.70;;;-1.50;99.90;;;;;;5043305;28;20028;-75
2022/12/14 09:39:13;;;;;;;34.88;15.35;;;-1.40;99.90;;;;;;5061115;28;20028;-75
2022/12/14 09:42:04;;;;;;;42.03;15.05;;;-1.20;99.90;;;;;;5041353;28;20026;-74
2022/12/14 09:44:35;;;;;;;37.63;15.18;;;-1.00;99.90;;;;;;5043799;28;20040;-74
2022/12/14 09:47:07;;;;;;;39.97;15.52;;;-1.00;99.90;;;;;;5042442;28;20087;-75
2022/12/14 09:49:38;;;;;;;36.38;15.15;;;-1.10;99.90;;;;;;5062640;28;20051;-74
2022/12/14 09:52:09;;;;;;;34.85;15.13;;;-1.20;99.90;;;;;;5061532;28;20399;-73
2022/12/14 09:54:37;;;;;;;38.28;15.35;;;-0.90;99.90;;;;;;5040714;28;20052;-73
2022/12/14 09:57:17;;;;;;;38.35;15.52;;;-0.70;99.90;;;;;;5062754;28;20100;-73
2022/12/14 09:59:43;;;;;;;33.50;15.57;;;-0.50;99.90;;;;;;5061746;28;20052;-73
2022/12/14 10:02:30;;;;;;;38.42;15.48;;;-0.40;99.90;;;;;;5060972;28;20048;-72
2022/12/14 10:05:13;;;;;;;39.47;15.27;;;-0.20;99.90;;;;;;5060776;28;20044;-73
2022/12/14 10:07:58;;;;;;;31.50;13.23;;;0.00;99.90;;;;;;5060252;28;20025;-73
2022/12/14 10:10:59;;;;;;;34.00;14.57;;;0.00;99.90;;;;;;5061557;28;20119;-73
2022/12/14 10:13:58;;;;;;;35.75;15.18;;;0.00;99.90;;;;;;5021212;28;20048;-73
2022/12/14 10:16:37;;;;;;;33.75;15.73;;;0.10;99.90;;;;;;5041161;28;20024;-73
2022/12/14 10:19:39;;;;;;;38.17;15.50;;;0.10;99.90;;;;;;5061962;28;20041;-72
2022/12/14 10:22:12;;;;;;;41.25;16.08;;;0.00;99.90;;;;;;5064117;28;20025;-74
2022/12/14 10:24:43;;;;;;;37.30;15.23;;;-0.10;99.90;;;;;;5064502;28;20032;-75
2022/12/14 10:27:21;;;;;;;42.25;17.10;;;-0.20;99.90;;;;;;5065052;28;20055;-75
2022/12/14 10:30:17;;;;;;;38.95;16.27;;;-0.40;99.90;;;;;;5062556;28;20021;-75
2022/12/14 10:32:48;;;;;;;36.83;15.73;;;-0.50;99.90;;;;;;5033677;28;20404;-74
2022/12/14 10:35:19;;;;;;;35.95;15.13;;;-0.30;99.90;;;;;;5045279;28;20021;-73
2022/12/14 10:38:01;;;;;;;37.65;14.98;;;-0.50;99.90;;;;;;5063035;28;20033;-74
2022/12/14 10:40:29;;;;;;;42.05;16.73;;;-0.40;99.90;;;;;;5046767;28;20025;-73
2022/12/14 10:43:07;;;;;;;38.88;16.58;;;-0.40;99.90;;;;;;5065043;28;20036;-74
2022/12/14 10:45:54;;;;;;;35.15;15.30;;;-0.40;99.90;;;;;;5065323;28;20117;-73
2022/12/14 10:48:44;;;;;;;39.38;16.75;;;-0.40;99.90;;;;;;5045093;28;20060;-74
2022/12/14 10:51:21;;;;;;;38.15;16.48;;;-0.50;99.90;;;;;;5064109;28;20067;-74
2022/12/14 10:53:55;;;;;;;41.22;15.60;;;-0.50;99.90;;;;;;5063599;28;20032;-73
2022/12/14 10:56:32;;;;;;;35.63;16.20;;;-0.50;99.90;;;;;;5063255;28;21318;-73
2022/12/14 10:59:20;;;;;;;35.13;14.35;;;-0.40;99.90;;;;;;5064703;28;20036;-74
2022/12/14 11:01:48;;;;;;;38.88;16.42;;;-0.40;99.90;;;;;;5043950;28;20041;-73
2022/12/14 11:04:43;;;;;;;36.88;15.55;;;-0.20;99.90;;;;;;5063376;28;20318;-75
2022/12/14 11:07:11;;;;;;;37.60;16.05;;;-0.10;99.90;;;;;;5063264;28;20084;-75
2022/12/14 11:09:38;;;;;;;40.83;15.38;;;0.00;99.90;;;;;;5063412;28;20013;-74
2022/12/14 11:12:07;;;;;;;42.35;17.00;;;0.10;99.90;;;;;;5044279;28;20029;-73
2022/12/14 11:14:35;;;;;;;37.53;17.30;;;0.20;99.90;;;;;;5064575;28;20074;-74
2022/12/14 11:17:01;;;;;;;35.10;15.00;;;0.20;99.90;;;;;;5045619;28;20033;-73
2022/12/14 11:19:28;;;;;;;43.42;16.42;;;0.20;99.90;;;;;;5043801;28;20428;-73
2022/12/14 11:22:11;;;;;;;36.22;15.27;;;0.30;99.90;;;;;;5063514;28;20196;-72
2022/12/14 11:24:47;;;;;;;35.05;15.07;;;0.40;99.90;;;;;;5061725;28;20033;-73
2022/12/14 11:27:18;;;;;;;31.23;15.25;;;0.50;99.90;;;;;;5061724;28;20108;-74
2022/12/14 11:29:46;;;;;;;34.05;15.85;;;0.70;99.90;;;;;;5063225;28;20028;-73
2022/12/14 11:32:39;;;;;;;39.05;15.40;;;0.90;99.90;;;;;;5064161;28;20032;-74
2022/12/14 11:35:05;;;;;;;37.08;15.82;;;1.10;99.90;;;;;;5062123;28;20073;-74
2022/12/14 11:37:31;;;;;;;34.50;14.73;;;1.30;99.90;;;;;;5063992;28;20037;-73
2022/12/14 11:40:00;;;;;;;34.58;16.23;;;1.50;99.90;;;;;;5045052;28;20091;-73
2022/12/14 11:42:26;;;;;;;37.17;15.07;;;1.70;99.90;;;;;;5045699;28;20708;-72
2022/12/14 11:44:53;;;;;;;41.42;15.65;;;2.00;99.90;;;;;;5062514;28;20017;-72
2022/12/14 11:47:28;;;;;;;36.85;15.80;;;2.30;99.90;;;;;;5062071;28;20041;-73
2022/12/14 11:49:55;;;;;;;35.70;16.15;;;2.30;99.90;;;;;;5062691;28;20477;-75
2022/12/14 11:52:38;;;;;;;35.13;15.85;;;2.20;99.90;;;;;;5062619;28;20036;-71
2022/12/14 11:55:13;;;;;;;36.60;15.18;;;2.00;99.90;;;;;;5044546;28;20029;-73
2022/12/14 11:57:53;;;;;;;35.42;16.27;;;2.10;99.90;;;;;;5063468;28;20063;-73
2022/12/14 12:00:19;;;;;;;38.15;15.43;;;2.40;99.90;;;;;;5062463;28;20029;-73
2022/12/14 12:02:50;;;;;;;34.20;15.25;;;2.70;99.90;;;;;;5062834;28;20021;-73
2022/12/14 12:05:19;;;;;;;48.17;15.95;;;3.00;99.90;;;;;;5043224;28;20124;-71
2022/12/14 12:07:55;;;;;;;31.95;14.85;;;3.30;99.90;;;;;;5060373;28;20031;-71
2022/12/14 12:10:36;;;;;;;33.33;13.85;;;3.60;99.90;;;;;;5062948;28;20068;-72
2022/12/14 12:13:06;;;;;;;35.38;15.57;;;4.10;99.90;;;;;;5062632;28;20017;-71
2022/12/14 12:15:39;;;;;;;30.42;14.55;;;4.40;99.90;;;;;;5062513;28;20024;-72
2022/12/14 12:18:15;;;;;;;34.10;14.13;;;4.60;99.90;;;;;;5044226;28;20033;-73
2022/12/14 12:20:49;;;;;;;40.08;14.90;;;4.70;99.90;;;;;;5061036;28;20028;-71
2022/12/14 12:23:21;;;;;;;34.75;14.60;;;4.90;99.90;;;;;;5062799;28;20021;-71
2022/12/14 12:25:49;;;;;;;32.50;15.30;;;5.00;99.90;;;;;;5062409;28;20055;-70
2022/12/14 12:28:28;;;;;;;33.42;13.55;;;4.80;99.90;;;;;;5062829;28;20017;-71
2022/12/14 12:30:59;;;;;;;40.88;16.20;;;4.50;99.90;;;;;;5062226;28;20623;-69
2022/12/14 12:33:36;;;;;;;35.20;15.27;;;4.30;99.90;;;;;;5042540;28;20127;-70
2022/12/14 12:36:04;;;;;;;32.50;14.45;;;4.20;99.90;;;;;;5060731;28;20484;-70
2022/12/14 12:38:58;;;;;;;32.28;15.38;;;4.10;99.90;;;;;;5062121;28;20028;-71
2022/12/14 12:41:27;;;;;;;32.70;15.68;;;3.90;99.90;;;;;;5059373;28;20025;-69
2022/12/14 12:43:55;;;;;;;44.42;17.63;;;3.50;99.90;;;;;;5060714;28;20021;-70
2022/12/14 12:46:29;;;;;;;37.00;15.32;;;3.40;99.90;;;;;;5059892;28;20469;-70
2022/12/14 12:49:03;;;;;;;32.65;14.43;;;3.20;99.90;;;;;;5061798;28;20017;-71
2022/12/14 12:51:47;;;;;;;32.47;15.15;;;2.90;99.90;;;;;;5062228;28;20139;-70
2022/12/14 12:54:26;;;;;;;30.53;14.07;;;2.60;99.90;;;;;;5063048;28;20021;-70
2022/12/14 12:56:55;;;;;;;34.80;14.85;;;2.30;99.90;;;;;;5062932;28;20386;-70
2022/12/14 12:59:29;;;;;;;35.05;14.55;;;2.10;99.90;;;;;;5062672;28;20025;-71
2022/12/14 13:01:59;;;;;;;28.80;14.18;;;1.80;99.90;;;;;;5062975;28;20029;-71
2022/12/14 13:04:38;;;;;;;33.47;15.35;;;1.60;99.90;;;;;;5061737;28;20101;-70
2022/12/14 13:07:25;;;;;;;28.90;14.27;;;1.40;99.90;;;;;;5062417;28;20049;-72
2022/12/14 13:10:00;;;;;;;31.35;14.43;;;1.30;99.90;;;;;;5061001;28;20025;-71
2022/12/14 13:12:36;;;;;;;30.45;14.00;;;1.10;99.90;;;;;;5042290;28;20025;-72
2022/12/14 13:15:13;;;;;;;35.65;14.70;;;0.90;99.90;;;;;;5042313;28;20112;-71
2022/12/14 13:17:54;;;;;;;38.35;15.88;;;0.80;99.90;;;;;;5060900;28;20037;-70
2022/12/14 13:20:25;;;;;;;28.23;13.48;;;0.60;99.90;;;;;;5061193;28;20029;-70
2022/12/14 13:22:52;;;;;;;30.67;13.93;;;0.60;99.90;;;;;;5062230;28;20036;-71
2022/12/14 13:25:35;;;;;;;35.10;13.52;;;0.50;99.90;;;;;;5061237;28;20054;-73
2022/12/14 13:28:26;;;;;;;33.50;13.90;;;0.50;99.90;;;;;;5060825;28;20025;-71
2022/12/14 13:31:34;;;;;;;28.90;13.77;;;0.40;99.90;;;;;;5044883;28;20041;-71
2022/12/14 13:34:35;;;;;;;38.13;14.70;;;0.40;99.90;;;;;;5043000;28;20033;-71
2022/12/14 13:37:25;;;;;;;35.33;15.15;;;0.30;99.90;;;;;;5060407;28;20029;-72
2022/12/14 13:40:20;;;;;;;36.65;14.57;;;0.30;99.90;;;;;;5056537;28;20039;-71
2022/12/14 13:43:27;;;;;;;30.60;14.05;;;0.20;99.90;;;;;;5037163;28;20033;-71
2022/12/14 13:45:54;;;;;;;34.42;15.15;;;0.10;99.90;;;;;;5031747;28;20079;-72
2022/12/14 13:48:25;;;;;;;31.35;13.73;;;0.10;99.90;;;;;;5051257;28;20075;-70
2022/12/14 13:51:01;;;;;;;34.00;14.23;;;0.00;99.90;;;;;;5050392;28;20044;-74
2022/12/14 13:53:48;;;;;;;33.28;14.88;;;0.00;99.90;;;;;;5059792;28;20021;-73
2022/12/14 13:56:22;;;;;;;41.38;15.25;;;-0.10;99.90;;;;;;5058176;28;20017;-71
2022/12/14 13:58:50;;;;;;;40.60;15.50;;;-0.10;99.90;;;;;;5060051;28;20067;-71
2022/12/14 14:01:22;;;;;;;38.10;14.88;;;-0.20;99.90;;;;;;5060310;28;20024;-71
2022/12/14 14:04:15;;;;;;;32.25;13.80;;;-0.30;99.90;;;;;;5060733;28;20036;-71
2022/12/14 14:06:41;;;;;;;35.63;14.10;;;-0.30;99.90;;;;;;5059859;28;20033;-71
2022/12/14 14:09:24;;;;;;;36.55;13.18;;;-0.30;99.90;;;;;;5058137;28;20032;-71
2022/12/14 14:12:22;;;;;;;33.40;13.40;;;-0.40;99.90;;;;;;5050868;28;20053;-70
2022/12/14 14:15:17;;;;;;;37.13;14.60;;;-0.40;99.90;;;;;;5034495;28;20037;-71
2022/12/14 14:17:48;;;;;;;38.75;15.30;;;-0.40;99.90;;;;;;5052613;28;20061;-71
2022/12/14 14:20:26;;;;;;;39.22;15.77;;;-0.40;99.90;;;;;;5058176;28;20078;-70
2022/12/14 14:23:14;;;;;;;36.20;14.43;;;-0.60;99.90;;;;;;5056232;28;20029;-72
2022/12/14 14:25:48;;;;;;;38.60;16.08;;;-0.60;99.90;;;;;;5050325;28;20025;-73
2022/12/14 14:28:16;;;;;;;33.97;15.00;;;-0.70;99.90;;;;;;5055726;28;20033;-71
2022/12/14 14:30:55;;;;;;;34.72;15.15;;;-0.70;99.90;;;;;;5059046;28;20104;-71
2022/12/14 14:33:29;;;;;;;37.35;14.80;;;-0.70;99.90;;;;;;5060104;28;20029;-71
2022/12/14 14:36:25;;;;;;;43.20;16.58;;;-0.80;99.90;;;;;;5056039;28;20770;-71
2022/12/14 14:38:53;;;;;;;37.78;15.57;;;-0.80;99.90;;;;;;5057962;28;20095;-72
2022/12/14 14:41:43;;;;;;;40.45;17.17;;;-0.90;99.90;;;;;;5040641;28;20017;-74
2022/12/14 14:44:33;;;;;;;41.33;16.98;;;-0.90;99.90;;;;;;5040834;28;20025;-71
2022/12/14 14:47:00;;;;;;;40.83;16.73;;;-1.00;99.90;;;;;;5052738;28;20091;-72
2022/12/14 14:49:39;;;;;;;49.03;17.67;;;-1.00;99.90;;;;;;5056720;28;20170;-69
2022/12/14 14:52:44;;;;;;;40.10;16.08;;;-1.10;99.90;;;;;;5039793;28;20036;-72
2022/12/14 14:55:28;;;;;;;41.85;17.65;;;-1.10;99.90;;;;;;4967155;28;20043;-75
2022/12/14 14:58:20;;;;;;;42.38;17.23;;;-1.20;99.90;;;;;;4970330;28;21248;-72
2022/12/14 15:00:58;;;;;;;43.53;18.60;;;-1.20;99.90;;;;;;5039865;28;20045;-72
2022/12/14 15:03:49;;;;;;;40.83;18.45;;;-1.30;99.90;;;;;;5058667;28;20029;-71
2022/12/14 15:06:26;;;;;;;38.50;17.65;;;-1.40;99.90;;;;;;5062294;28;20036;-72
2022/12/14 15:08:58;;;;;;;46.90;18.52;;;-1.40;99.90;;;;;;5064153;28;20025;-73
2022/12/14 15:11:26;;;;;;;42.33;18.50;;;-1.50;99.90;;;;;;5035368;28;20013;-72
2022/12/14 15:14:05;;;;;;;41.83;17.15;;;-1.50;99.90;;;;;;5041231;28;20040;-74
2022/12/14 15:16:49;;;;;;;38.60;16.15;;;-1.60;99.90;;;;;;5064604;28;20101;-73
2022/12/14 15:19:32;;;;;;;40.80;17.15;;;-1.60;99.90;;;;;;5064200;28;20425;-72
2022/12/14 15:22:12;;;;;;;46.55;18.33;;;-1.70;99.90;;;;;;5063671;28;20116;-73
2022/12/14 15:24:41;;;;;;;36.40;16.83;;;-1.70;99.90;;;;;;5063162;28;20485;-74
2022/12/14 15:27:23;;;;;;;45.25;17.92;;;-1.80;99.90;;;;;;5062747;28;20096;-73
2022/12/14 15:29:50;;;;;;;41.30;17.58;;;-1.80;99.90;;;;;;5043377;28;20029;-72
2022/12/14 15:32:19;;;;;;;40.13;17.83;;;-2.00;99.90;;;;;;5062327;28;20032;-71
2022/12/14 15:35:03;;;;;;;44.17;17.45;;;-2.00;99.90;;;;;;5062745;28;20052;-70
2022/12/14 15:37:40;;;;;;;41.67;17.42;;;-2.10;99.90;;;;;;5039951;28;20037;-71
2022/12/14 15:40:13;;;;;;;37.28;18.23;;;-2.10;99.90;;;;;;5063188;28;20032;-72
2022/12/14 15:42:53;;;;;;;45.58;18.52;;;-2.20;99.90;;;;;;5040917;28;20033;-73
2022/12/14 15:45:24;;;;;;;56.05;21.10;;;-2.20;99.90;;;;;;5061557;28;20033;-71
2022/12/14 15:47:50;;;;;;;48.22;20.90;;;-2.20;99.90;;;;;;5043548;28;21350;-71
2022/12/14 15:50:26;;;;;;;51.53;20.25;;;-2.30;99.90;;;;;;5044756;28;20045;-71
2022/12/14 15:52:59;;;;;;;48.30;21.08;;;-2.30;99.90;;;;;;5056579;28;20063;-70
2022/12/14 15:55:34;;;;;;;51.80;20.33;;;-2.30;99.90;;;;;;5043640;28;20020;-71
2022/12/14 15:58:07;;;;;;;47.05;20.90;;;-2.30;99.90;;;;;;5036343;28;20055;-71
2022/12/14 16:00:35;;;;;;;54.88;20.60;;;-2.20;99.90;;;;;;5068523;28;20037;-71
2022/12/14 16:03:17;;;;;;;44.90;19.30;;;-2.30;99.90;;;;;;5069935;28;20082;-71
2022/12/14 16:05:43;;;;;;;45.75;18.45;;;-2.40;99.90;;;;;;5047315;28;20029;-72
2022/12/14 16:08:10;;;;;;;56.53;19.38;;;-2.40;99.90;;;;;;5063814;28;20029;-71
2022/12/14 16:10:36;;;;;;;50.92;20.98;;;-2.50;99.90;;;;;;5062461;28;20028;-72
2022/12/14 16:13:19;;;;;;;52.25;22.17;;;-2.50;99.90;;;;;;5064000;28;20037;-72
2022/12/14 16:15:45;;;;;;;71.00;28.17;;;-2.60;99.90;;;;;;5061169;28;20100;-72
2022/12/14 16:18:14;;;;;;;74.50;29.27;;;-2.70;99.90;;;;;;5061655;28;20047;-73
2022/12/14 16:20:44;;;;;;;84.20;34.47;;;-2.70;99.90;;;;;;5062746;28;20071;-74
2022/12/14 16:23:12;;;;;;;89.90;34.05;;;-2.70;99.90;;;;;;5064241;28;20084;-72
2022/12/14 16:25:53;;;;;;;106.30;37.42;;;-2.80;99.90;;;;;;5061377;28;20036;-71
2022/12/14 16:28:32;;;;;;;100.28;40.90;;;-2.80;99.90;;;;;;5042960;28;20112;-71
2022/12/14 16:31:16;;;;;;;129.82;44.47;;;-2.80;99.90;;;;;;5042822;28;20089;-73
2022/12/14 16:33:42;;;;;;;;;;;-2.90;99.90;;;;;;5061771;28;20036;-72
2022/12/14 16:36:16;;;;;;;126.07;41.30;;;-2.90;99.90;;;;;;5042859;28;19904;-73
2022/12/14 16:39:02;;;;;;;110.82;41.90;;;-2.90;99.90;;;;;;5062315;28;20056;-74
2022/12/14 16:41:43;;;;;;;115.10;42.47;;;-3.00;99.90;;;;;;5059819;28;20033;-73
2022/12/14 16:44:21;;;;;;;109.95;40.90;;;-3.00;99.90;;;;;;5060845;28;20029;-72
2022/12/14 16:47:02;;;;;;;105.85;40.33;;;-3.00;99.90;;;;;;5041792;28;20029;-73
2022/12/14 16:49:46;;;;;;;108.20;40.17;;;-3.00;99.90;;;;;;5060654;28;20485;-72
2022/12/14 16:52:19;;;;;;;105.80;38.88;;;-3.10;99.90;;;;;;5041904;28;20032;-72
2022/12/14 16:55:07;;;;;;;113.80;39.85;;;-3.10;99.90;;;;;;5042297;28;20469;-72
2022/12/14 16:57:34;;;;;;;101.20;39.22;;;-3.20;99.90;;;;;;5061394;28;20051;-72
2022/12/14 17:00:03;;;;;;;104.25;39.38;;;-3.20;99.90;;;;;;5060231;28;20302;-72
2022/12/14 17:02:43;;;;;;;123.78;40.78;;;-3.20;99.90;;;;;;5060987;28;20055;-73
2022/12/14 17:05:18;;;;;;;101.13;42.33;;;-3.30;99.90;;;;;;5061121;28;20032;-73
2022/12/14 17:07:44;;;;;;;108.28;41.75;;;-3.30;99.90;;;;;;5042631;28;20094;-73
2022/12/14 17:10:14;;;;;;;110.22;41.53;;;-3.40;99.90;;;;;;5061861;28;20033;-73
2022/12/14 17:12:42;;;;;;;110.53;42.55;;;-3.40;99.90;;;;;;5061646;28;20024;-74
2022/12/14 17:15:21;;;;;;;118.38;43.75;;;-3.40;99.90;;;;;;5062172;28;20473;-74
2022/12/14 17:17:49;;;;;;;118.47;45.92;;;-3.50;99.90;;;;;;5040210;28;20037;-73
2022/12/14 17:20:22;;;;;;;118.15;46.22;;;-3.50;99.90;;;;;;5047408;28;20124;-73
2022/12/14 17:22:48;;;;;;;126.57;45.63;;;-3.50;99.90;;;;;;5037410;28;20024;-73
2022/12/14 17:25:14;;;;;;;126.57;45.22;;;-3.60;99.90;;;;;;5039481;28;20017;-75
2022/12/14 17:27:40;;;;;;;123.72;43.20;;;-3.60;99.90;;;;;;5032392;28;20060;-74
2022/12/14 17:30:13;;;;;;;112.55;43.75;;;-3.60;99.90;;;;;;5033975;28;20140;-73
2022/12/14 17:32:39;;;;;;;130.70;46.17;;;-3.60;99.90;;;;;;5054914;28;20112;-74
2022/12/14 17:35:07;;;;;;;116.82;40.75;;;-3.60;99.90;;;;;;5061246;28;20443;-73
2022/12/14 17:37:33;;;;;;;113.45;41.55;;;-3.50;99.90;;;;;;5038362;28;20032;-73
2022/12/14 17:39:59;;;;;;;93.95;38.50;;;-3.50;99.90;;;;;;5059899;28;20039;-73
2022/12/14 17:42:25;;;;;;;84.15;33.88;;;-3.50;99.90;;;;;;5060311;28;20159;-72
2022/12/14 17:44:54;;;;;;;88.18;33.95;;;-3.50;99.90;;;;;;5038410;28;20134;-74
2022/12/14 17:47:20;;;;;;;87.72;35.30;;;-3.40;99.90;;;;;;5059533;28;20377;-73
2022/12/14 17:49:45;;;;;;;90.90;33.70;;;-3.50;99.90;;;;;;5033601;28;20025;-74
2022/12/14 17:52:25;;;;;;;80.25;33.10;;;-3.50;99.90;;;;;;5042326;28;20040;-74
2022/12/14 17:54:51;;;;;;;87.70;33.47;;;-3.50;99.90;;;;;;5059908;28;20070;-72
2022/12/14 17:57:19;;;;;;;103.07;38.63;;;-2.20;99.90;;;;;;5042276;28;20024;-74
2022/12/14 17:59:45;;;;;;;102.20;37.53;;;-1.70;99.90;;;;;;5060085;28;20028;-74
2022/12/14 18:02:34;;;;;;;116.22;40.03;;;-1.70;99.90;;;;;;5060298;28;20583;-73
2022/12/14 18:05:00;;;;;;;132.30;46.95;;;-2.10;99.90;;;;;;5060505;28;20028;-74
2022/12/14 18:07:26;;;;;;;130.77;49.80;;;-2.50;99.90;;;;;;5037958;28;20036;-74
2022/12/14 18:09:54;;;;;;;134.20;52.00;;;-2.70;99.90;;;;;;5031583;28;20051;-76
2022/12/14 18:12:21;;;;;;;120.45;48.20;;;-3.10;99.90;;;;;;5029498;28;20068;-75
2022/12/14 18:14:47;;;;;;;121.50;46.75;;;-3.30;99.90;;;;;;5057602;28;20021;-73
2022/12/14 18:17:12;;;;;;;134.32;48.20;;;-3.40;99.90;;;;;;5057541;28;20029;-75
2022/12/14 18:19:39;;;;;;;124.15;48.40;;;-3.70;99.90;;;;;;5058227;28;20039;-74